Invergarry, United Kingdom
Current Conditions -  °F | °C
As of 5:20 PM on Saturday 25 Oct 2014 (Local Time) from EGPE Reporting Station
Rain Showers Rain Showers  
Wind Chill: 52°   Ceiling: Unl
Heat Index: 52°   Visibility: 6mi
Dew Point: 45°   Wind: 29mph
Humidity: 76%   Direction: 210°SSW
Pressure: 29.47"   Gusts: 40mph
Location:  57.07°N, 4.8°W
Report Text: EGPE 251620Z 21025G35KT 9999 VCSH FEW020 FEW045CB 11/07 Q0998
Loading
Personal Weather Stations






























Interactive Weather Map
Tropical Storm Tracking
New forecast layout! Learn more

10-Day Weather Forecast

Advertisements
Track Severe Weather on mobile